Historyczne dane pomiarowe

Dodano dane terminowe – wersja testowa.

Dane z okresu 1951-2019

Wersja bazy: 1.34 [2019-03-16, lista zmian], aktualizacja planowana na 2019-04-15

Dane meteo z obszaru Polski uzyskane na podstawie danych udostępnionych przez Instytut Meteorologii i Gospodarki Wodnej – Państwowy Instytut Badawczy.

 

Wybierz Datę:    

       

TemperaturaWilgotnośćWiatrCiśnienieOpadyŚniegCzas trwania zjawisk
 Stacja t tx tn tng RH VA  wxwx mslp ppp RRR   cm mm wxwxwxwxwxwxwx
1979-02-15 -5.0 -3.6 -6.5 -7.4 88.3- 8.0 3.0---- 0.0-- 36---------
1979-02-14 -5.6 -4.3 -7.4 -7.3 89.3- 8.0 3.3---- 0.0-- 36---------
1979-02-13 -2.7 -1.2 -4.6 -3.6 94.0- 8.0 5.0---- 7.8-- 30---------
1979-02-12 -6.8 -1.9-15.1-15.7 87.5- 8.0 5.0---- 4.2-- 24---------
1979-02-11-10.7 -4.2-15.3-17.5 81.3- 8.0 4.3---- 0.0-- 25---------
1979-02-10 -7.7 -2.1-11.8-14.1 81.5- 4.0 3.0---- 0.0-- 25---------
1979-02-09 -3.9 -0.4 -6.5-10.8 77.0- 3.0 6.0---- 0.0-- 26---------
1979-02-08 -5.8 -1.0-10.6-14.2 83.0- 7.7 3.7---- 0.0-- 26---------
1979-02-07 -5.4 -3.5 -9.7 -9.0 88.3- 8.0 4.0---- 0.0-- 28---------
1979-02-06 -4.3 -0.1 -8.5 -9.3 93.5- 8.0 6.3---- 0.0-- 28---------
1979-02-05 -5.5 0.2-14.7-16.0 91.0- 8.0 0.3---- 6.6-- 22---------
1979-02-04 -2.8 1.0 -5.0 -9.8 86.8- 4.7 6.3---- 2.2-- 22---------
1979-02-03 0.4 2.9 -1.7 -2.3 80.5- 8.0 4.0---- 0.0-- 26---------
1979-02-02 0.5 3.4 -3.0 -6.0 79.8- 7.3 2.3---- 0.0-- 26---------
1979-02-01 -1.9 1.1 -5.4 -6.3 90.5- 8.0 9.0---- 3.3-- 20---------
1979-01-31 -0.5 1.3 -3.4 -5.1 85.3- 4.7 8.3---- 0.0-- 22---------
1979-01-30 -1.2 1.5 -3.6 -4.3 95.3- 8.0 10.0---- 3.7-- 23---------
1979-01-29 1.2 4.4 0.1 -0.3 99.3- 8.0 2.7---- 0.3-- 26---------
1979-01-28 4.0 5.7 -1.5 -1.3 84.3- 8.0 3.3---- 7.8-- 33---------
1979-01-27 -1.8 0.6 -6.3 -6.8 96.3- 8.0 3.7---- 2.3-- 37---------
1979-01-26 -3.9 0.5 -9.1-10.3 93.3- 7.7 3.3---- 0.0-- 37---------
1979-01-25 -1.8 0.1 -4.4 -4.3 91.5- 7.0 4.3---- 0.0-- 37---------
1979-01-24 -4.9 -1.1-14.8-14.2 92.0- 7.7 3.3---- 3.2-- 38---------
1979-01-23 -7.8 -5.3-12.0-13.1 92.5- 8.0 3.7---- 0.0-- 39---------
1979-01-22-10.5 -7.9-16.3-19.7 88.3- 7.0 3.3---- 2.5-- 37---------
1979-01-21-10.4 -6.7-15.9-16.2 91.8- 4.3 3.0---- 0.0-- 37---------
1979-01-20 -6.5 -3.9 -7.0 -7.8 95.0- 8.0 3.7---- 0.0-- 37---------
1979-01-19 -5.2 -4.1 -6.3 -6.8 96.8- 8.0 5.3---- 0.0-- 38---------
1979-01-18 -4.7 -3.4 -5.9 -6.8 98.0- 8.0 4.7---- 0.0-- 42---------
1979-01-17 -3.5 -1.9 -5.8 -5.8 98.0- 5.3 2.3---- 3.3-- 42---------
1979-01-16 -3.3 -0.4 -4.7 -4.8 98.0- 8.0 3.3---- 7.8-- 40---------
1979-01-15 -3.8 -1.5 -4.9 -6.3 98.0- 8.0 2.7---- 4.9-- 34---------
1979-01-14 -5.0 -4.4-10.1-10.7 96.8- 8.0 3.0---- 5.2-- 29---------
1979-01-13 -7.7 -3.8-11.2-10.5 95.8- 8.0 3.0---- 0.0-- 28---------
1979-01-12 -1.7 0.1 -5.3 -5.5 94.3- 8.0 1.7---- 1.3-- 26---------
1979-01-11 -1.1 1.2 -2.3 -3.3 90.3- 3.3 2.7---- 0.1-- 25---------
1979-01-10 -0.6 0.7 -1.3 -4.8 94.3- 8.0 3.0---- 6.1-- 22---------
1979-01-09 -2.6 -0.7 -4.0 -6.4 66.3- 8.0 5.0---- 0.3-- 22---------
1979-01-08 -4.6 -2.9-14.0-18.0 72.8- 7.3 9.3---- 0.0-- 22---------
1979-01-07-10.0 -6.9-13.9-18.2 90.5- 3.7 4.0---- 0.0-- 22---------
1979-01-06-10.0 -6.9-13.3-15.2 85.5- 5.7 6.3---- 0.0-- 22---------
1979-01-05-15.3 -9.5-23.3-27.7 85.5- 8.0 6.7---- 2.2-- 14---------
1979-01-04-14.3-10.9-17.9-18.8 87.8- 1.7 3.3---- 0.0-- 13---------
1979-01-03-11.3 -9.8-13.1-13.2 87.0- 5.7 4.0---- 0.0-- 13---------
1979-01-02-15.4-10.0-19.3-21.2 82.8- 6.7 4.7---- 0.8-- 10---------
1979-01-01-15.0-12.6-17.2-19.0 85.8- 6.0 3.0---- 1.3-- 7---------
1978-12-31-17.4-15.7-18.7-19.3 86.3- 6.7 6.7---- 1.8------------
1978-12-30-14.3 -1.4-18.1-18.5 84.3- 6.7 7.3---- 0.9------------
1978-12-29 3.4 7.0 -1.5 -3.0 92.3- 8.0 5.7---- 2.1------------
1978-12-28 1.4 4.0 -0.2 -0.7 94.8- 8.0 1.7---- 2.0------------
1978-12-27 2.6 4.3 1.5 1.0 92.8- 7.3 3.0---- 4.1------------
1978-12-26 2.0 3.7 0.6 -0.4 93.5- 8.0 5.3---- 0.0------------
1978-12-25 0.1 1.6 -0.7 -2.3 92.0- 8.0 2.7---- 0.0------------
1978-12-24 -1.1 1.3 -4.6 -6.3 90.8- 7.3 1.7---- 0.0------------
1978-12-23 -6.5 -1.9 -9.9-10.8 81.8- 0.0 3.7---- 0.0------------
1978-12-22 -9.5 -6.3-11.9-13.2 84.5- 0.3 4.0---- 0.0------------
1978-12-21 -5.8 -1.1 -8.2 -9.0 92.5- 7.7 4.0---- 0.0------------
1978-12-20 -4.9 -1.5 -9.2-11.7 90.5- 8.0 2.0---- 0.0------------
1978-12-19 -6.6 -2.5 -9.2-10.7 84.5- 0.0 2.7---- 0.0------------
1978-12-18 -8.9 -5.9-10.4-10.7 77.0- 0.7 4.3---- 0.0------------
1266.9 ms

 

Źródłem pochodzenia danych jest Instytut Meteorologii i Gospodarki Wodnej – Państwowy Instytut Badawczy. Dane Instytutu Meteorologii i Gospodarki Wodnej – Państwowego Instytutu Badawczego zostały przetworzone.

Dane źródłowe można odnaleźć na stronie https://dane.imgw.pl